createdAt,value
2022-09-17T00:01:23.483Z,4.40
2022-09-17T00:03:53.781Z,4.40
2022-09-17T00:06:22.037Z,4.82
2022-09-17T00:08:49.487Z,4.63
2022-09-17T00:11:21.370Z,4.18
2022-09-17T00:13:50.914Z,4.80
2022-09-17T00:16:31.256Z,4.68
2022-09-17T00:18:59.863Z,4.50
2022-09-17T00:21:28.206Z,5.30
2022-09-17T00:23:57.983Z,4.47
2022-09-17T00:26:26.165Z,4.85
2022-09-17T00:28:55.477Z,4.53
2022-09-17T00:31:23.993Z,4.50
2022-09-17T00:33:51.892Z,4.63
2022-09-17T00:36:20.655Z,4.75
2022-09-17T00:38:56.589Z,4.82
2022-09-17T00:41:28.726Z,4.82
2022-09-17T00:43:58.424Z,4.15
2022-09-17T00:46:30.766Z,4.70
2022-09-17T00:49:01.172Z,4.43
2022-09-17T00:51:38.407Z,4.50
2022-09-17T00:54:08.230Z,4.25
2022-09-17T00:56:38.264Z,4.32
2022-09-17T00:59:06.319Z,4.70
2022-09-17T01:01:34.044Z,4.40
2022-09-17T01:04:02.083Z,4.65
2022-09-17T01:06:40.827Z,3.80
2022-09-17T01:09:17.495Z,3.75
2022-09-17T01:11:50.941Z,3.53
2022-09-17T01:14:28.392Z,3.97
2022-09-17T01:17:14.612Z,4.05
2022-09-17T01:19:45.739Z,4.10
2022-09-17T01:22:24.278Z,4.20
2022-09-17T01:25:43.360Z,4.03
2022-09-17T01:28:22.861Z,4.20
2022-09-17T01:31:05.842Z,4.45
2022-09-17T01:33:39.344Z,4.28
2022-09-17T01:36:25.177Z,4.40
2022-09-17T01:39:13.977Z,4.03
2022-09-17T01:42:09.875Z,4.37
2022-09-17T01:44:43.190Z,4.25
2022-09-17T01:47:21.770Z,4.30
2022-09-17T01:49:52.687Z,3.95
2022-09-17T01:52:23.153Z,4.07
2022-09-17T01:54:53.797Z,3.70
2022-09-17T01:57:27.388Z,3.80
2022-09-17T02:00:14.750Z,4.18
2022-09-17T02:02:59.289Z,3.97
2022-09-17T02:05:31.171Z,3.83
2022-09-17T02:08:04.814Z,4.07
2022-09-17T02:10:37.257Z,4.20
2022-09-17T02:13:20.482Z,4.35
2022-09-17T02:15:55.473Z,3.90
2022-09-17T02:18:23.248Z,3.90
2022-09-17T02:20:55.179Z,3.42
2022-09-17T02:23:31.011Z,3.70
2022-09-17T02:26:10.782Z,3.35
2022-09-17T02:28:48.471Z,3.15
2022-09-17T02:31:16.473Z,4.07
2022-09-17T02:33:47.953Z,3.60
2022-09-17T02:36:16.399Z,3.60
2022-09-17T02:38:44.863Z,3.40
2022-09-17T02:41:23.099Z,3.25
2022-09-17T02:43:59.642Z,3.30
2022-09-17T02:46:54.927Z,3.72
2022-09-17T02:49:31.964Z,3.22
2022-09-17T02:52:08.443Z,3.85
2022-09-17T02:54:48.689Z,3.50
2022-09-17T02:57:38.144Z,3.20
2022-09-17T03:00:14.212Z,3.40
2022-09-17T03:03:02.016Z,3.10
2022-09-17T03:05:30.428Z,3.00
2022-09-17T03:07:59.296Z,3.80
2022-09-17T03:10:33.462Z,3.30
2022-09-17T03:13:01.277Z,3.03
2022-09-17T03:15:28.713Z,3.53
2022-09-17T03:17:56.165Z,3.28
2022-09-17T03:20:24.391Z,3.42
2022-09-17T03:22:52.328Z,3.37
2022-09-17T03:25:19.792Z,3.37
2022-09-17T03:27:48.318Z,3.40
2022-09-17T03:30:15.897Z,2.72
2022-09-17T03:32:43.430Z,2.95
2022-09-17T03:35:11.128Z,2.90
2022-09-17T03:37:38.553Z,2.78
2022-09-17T03:40:06.941Z,3.22
2022-09-17T03:42:34.908Z,2.95
2022-09-17T03:45:02.296Z,3.12
2022-09-17T03:47:30.721Z,3.00
2022-09-17T03:49:59.068Z,3.10
2022-09-17T03:52:26.457Z,3.12
2022-09-17T03:54:53.924Z,3.30
2022-09-17T03:57:22.791Z,2.83
2022-09-17T03:59:51.217Z,3.00
2022-09-17T04:02:18.738Z,3.45
2022-09-17T04:04:46.496Z,2.85
2022-09-17T04:07:13.924Z,2.80
2022-09-17T04:09:41.448Z,3.33
2022-09-17T04:12:09.152Z,3.30
2022-09-17T04:14:36.595Z,2.95
2022-09-17T04:17:04.054Z,3.53
2022-09-17T04:19:32.025Z,2.85
2022-09-17T04:22:00.231Z,3.20
2022-09-17T04:24:27.713Z,2.83
2022-09-17T04:26:55.439Z,2.95
2022-09-17T04:29:23.004Z,3.10
2022-09-17T04:31:50.543Z,3.20
2022-09-17T04:34:18.280Z,3.47
2022-09-17T04:36:45.823Z,3.00
2022-09-17T04:39:13.446Z,3.30
2022-09-17T04:41:41.164Z,3.30
2022-09-17T04:44:08.664Z,2.87
2022-09-17T04:46:36.205Z,3.17
2022-09-17T04:49:04.042Z,3.30
2022-09-17T04:51:31.548Z,3.20
2022-09-17T04:53:58.939Z,3.00
2022-09-17T04:56:26.788Z,3.25
2022-09-17T04:58:54.276Z,3.58
2022-09-17T05:01:21.761Z,3.00
2022-09-17T05:03:50.071Z,3.40
2022-09-17T05:06:17.593Z,3.53
2022-09-17T05:08:45.829Z,3.30
2022-09-17T05:11:13.748Z,3.10
2022-09-17T05:13:41.221Z,3.33
2022-09-17T05:16:08.680Z,3.12
2022-09-17T05:18:36.447Z,3.08
2022-09-17T05:21:04.036Z,2.90
2022-09-17T05:23:31.521Z,3.05
2022-09-17T05:26:02.731Z,3.50
2022-09-17T05:28:31.049Z,3.00
2022-09-17T05:31:00.053Z,3.00
2022-09-17T05:33:28.017Z,2.95
2022-09-17T05:35:55.588Z,3.08
2022-09-17T05:38:23.337Z,3.03
2022-09-17T05:40:50.789Z,3.30
2022-09-17T05:43:18.328Z,3.15
2022-09-17T05:45:46.697Z,2.90
2022-09-17T05:48:15.147Z,3.40
2022-09-17T05:50:42.825Z,3.20
2022-09-17T05:53:12.117Z,3.10
2022-09-17T05:55:40.526Z,3.17
2022-09-17T05:58:20.151Z,3.15
2022-09-17T06:00:48.867Z,3.17
2022-09-17T06:03:18.569Z,2.93
2022-09-17T06:05:59.641Z,3.60
2022-09-17T06:08:28.615Z,3.22
2022-09-17T06:11:00.215Z,3.40
2022-09-17T06:13:29.520Z,3.25
2022-09-17T06:15:57.019Z,2.93
2022-09-17T06:18:24.609Z,2.90
2022-09-17T06:20:56.819Z,3.40
2022-09-17T06:23:24.772Z,2.53
2022-09-17T06:25:57.713Z,2.45
2022-09-17T06:28:28.689Z,3.60
2022-09-17T06:31:00.777Z,3.15
2022-09-17T06:33:28.573Z,2.80
2022-09-17T06:36:01.009Z,2.50
2022-09-17T06:38:29.901Z,3.20
2022-09-17T06:40:57.736Z,2.53
2022-09-17T06:43:25.492Z,2.80
2022-09-17T06:46:05.653Z,3.03
2022-09-17T06:48:34.767Z,2.67
2022-09-17T06:51:03.984Z,3.12
2022-09-17T06:53:31.934Z,3.00
2022-09-17T06:56:06.054Z,3.20
2022-09-17T06:58:37.072Z,2.92
2022-09-17T07:01:05.895Z,2.97
2022-09-17T07:03:33.889Z,2.53
2022-09-17T07:06:01.486Z,2.37
2022-09-17T07:08:29.376Z,2.62
2022-09-17T07:10:57.580Z,2.60
2022-09-17T07:13:25.530Z,3.00
2022-09-17T07:16:03.516Z,2.53
2022-09-17T07:18:31.113Z,2.77
2022-09-17T07:21:00.948Z,2.70
2022-09-17T07:23:30.880Z,2.90
2022-09-17T07:26:00.652Z,2.87
2022-09-17T07:28:28.896Z,2.37
2022-09-17T07:30:56.917Z,2.40
2022-09-17T07:33:27.477Z,2.53
2022-09-17T07:35:59.404Z,2.20
2022-09-17T07:38:28.546Z,2.60
2022-09-17T07:40:58.225Z,2.83
2022-09-17T07:43:30.999Z,2.53
2022-09-17T07:46:00.046Z,2.30
2022-09-17T07:48:28.315Z,2.53
2022-09-17T07:50:56.503Z,2.70
2022-09-17T07:53:25.227Z,2.40
2022-09-17T07:55:59.824Z,2.60
2022-09-17T07:58:32.912Z,2.45
2022-09-17T08:01:08.643Z,2.37
2022-09-17T08:03:37.386Z,2.35
2022-09-17T08:06:06.507Z,2.58
2022-09-17T08:08:35.900Z,4.13
2022-09-17T08:11:06.196Z,2.30
2022-09-17T08:13:34.201Z,2.50
2022-09-17T08:16:04.173Z,2.37
2022-09-17T08:18:32.377Z,2.50
2022-09-17T08:21:01.313Z,2.60
2022-09-17T08:23:30.031Z,2.58
2022-09-17T08:25:59.475Z,2.40
2022-09-17T08:28:29.046Z,2.25
2022-09-17T08:31:05.046Z,1.87
2022-09-17T08:33:34.491Z,2.17
2022-09-17T08:36:02.554Z,2.08
2022-09-17T08:38:37.201Z,2.15
2022-09-17T08:41:24.468Z,2.25
2022-09-17T08:44:18.218Z,2.40
2022-09-17T08:46:45.872Z,2.10
2022-09-17T08:49:31.072Z,1.87
2022-09-17T08:52:26.849Z,2.60
2022-09-17T08:55:03.282Z,2.17
2022-09-17T08:57:37.210Z,2.58
2022-09-17T09:00:19.418Z,1.93
2022-09-17T09:02:56.235Z,1.77
2022-09-17T09:05:33.216Z,2.22
2022-09-17T09:08:05.860Z,2.15
2022-09-17T09:10:51.552Z,2.00
2022-09-17T09:13:21.434Z,2.00
2022-09-17T09:16:11.784Z,2.08
2022-09-17T09:18:41.075Z,2.05
2022-09-17T09:21:17.860Z,1.92
2022-09-17T09:23:51.478Z,2.20
2022-09-17T09:26:23.978Z,2.10
2022-09-17T09:29:19.004Z,2.10
2022-09-17T09:32:29.430Z,2.00
2022-09-17T09:34:59.410Z,2.10
2022-09-17T09:37:34.997Z,1.92
2022-09-17T09:40:22.224Z,1.60
2022-09-17T09:42:53.943Z,1.90
2022-09-17T09:45:47.861Z,1.98
2022-09-17T09:48:34.210Z,1.52
2022-09-17T09:51:37.248Z,1.40
2022-09-17T09:54:23.814Z,1.43
2022-09-17T09:57:03.486Z,1.75
2022-09-17T09:59:31.965Z,1.30
2022-09-17T10:01:59.885Z,0.90
2022-09-17T10:04:29.233Z,1.20
2022-09-17T10:07:05.864Z,0.90
2022-09-17T10:09:35.393Z,1.00
2022-09-17T10:12:05.107Z,0.90
2022-09-17T10:14:40.709Z,1.20
2022-09-17T10:17:25.106Z,1.00
2022-09-17T10:20:01.936Z,0.80
2022-09-17T10:22:32.434Z,0.80
2022-09-17T10:25:01.475Z,0.80
2022-09-17T10:27:29.258Z,1.30
2022-09-17T10:30:10.580Z,0.88
2022-09-17T10:32:38.489Z,0.87
2022-09-17T10:35:15.198Z,0.90
2022-09-17T10:37:48.663Z,1.02
2022-09-17T10:40:19.534Z,1.30
2022-09-17T10:42:51.775Z,1.10
2022-09-17T10:45:27.734Z,1.30
2022-09-17T10:47:57.298Z,0.90
2022-09-17T10:50:25.180Z,1.20
2022-09-17T10:53:02.318Z,0.93
2022-09-17T10:55:35.850Z,1.08
2022-09-17T10:58:12.373Z,0.80
2022-09-17T11:01:09.117Z,1.20
2022-09-17T11:04:07.728Z,1.05
2022-09-17T11:07:14.063Z,0.77
2022-09-17T11:10:11.013Z,1.37
2022-09-17T11:13:01.209Z,0.90
2022-09-17T11:15:43.993Z,1.00
2022-09-17T11:18:39.291Z,1.00
2022-09-17T11:21:28.134Z,1.05
2022-09-17T11:24:29.854Z,0.93
2022-09-17T11:27:18.225Z,0.87
2022-09-17T11:30:22.066Z,0.80
2022-09-17T11:32:52.464Z,1.17
2022-09-17T11:36:00.214Z,0.93
2022-09-17T11:38:30.122Z,0.90
2022-09-17T11:41:02.776Z,1.00
2022-09-17T11:43:35.671Z,0.90
2022-09-17T11:46:22.967Z,1.52
2022-09-17T11:49:05.260Z,0.90
2022-09-17T11:51:43.904Z,0.98
2022-09-17T11:54:30.391Z,1.00
2022-09-17T11:57:09.931Z,1.08
2022-09-17T11:59:56.634Z,1.12
2022-09-17T12:02:48.322Z,1.10
2022-09-17T12:05:25.962Z,1.10
2022-09-17T12:08:22.912Z,1.20
2022-09-17T12:11:15.789Z,0.95
2022-09-17T12:13:47.010Z,0.82
2022-09-17T12:16:32.702Z,0.80
2022-09-17T12:19:04.369Z,1.00
2022-09-17T12:21:41.938Z,0.80
2022-09-17T12:24:29.750Z,1.00
2022-09-17T12:27:04.727Z,1.02
2022-09-17T12:29:35.219Z,1.05
2022-09-17T12:32:27.917Z,1.25
2022-09-17T12:34:55.353Z,0.93
2022-09-17T12:37:48.992Z,1.00
2022-09-17T12:40:45.021Z,0.85
2022-09-17T12:43:37.810Z,0.90
2022-09-17T12:46:22.115Z,0.90
2022-09-17T12:49:04.783Z,0.60
2022-09-17T12:51:48.924Z,0.80
2022-09-17T12:54:35.207Z,0.93
2022-09-17T12:57:21.660Z,0.90
2022-09-17T13:00:07.877Z,1.00
2022-09-17T13:02:50.480Z,0.70
2022-09-17T13:05:41.276Z,1.30
2022-09-17T13:08:40.139Z,1.10
2022-09-17T13:11:30.504Z,1.00
2022-09-17T13:14:25.441Z,1.37
2022-09-17T13:17:02.297Z,0.93
2022-09-17T13:19:38.236Z,1.10
2022-09-17T13:22:10.311Z,1.30
2022-09-17T13:24:37.930Z,1.20
2022-09-17T13:27:06.002Z,1.25
2022-09-17T13:29:48.801Z,1.10
2022-09-17T13:32:34.894Z,1.00
2022-09-17T13:35:11.442Z,1.42
2022-09-17T13:37:45.949Z,1.58
2022-09-17T13:40:35.837Z,1.40
2022-09-17T13:43:03.627Z,0.90
2022-09-17T13:45:32.965Z,1.45
2022-09-17T13:48:04.074Z,1.67
2022-09-17T13:50:37.494Z,1.40
2022-09-17T13:53:12.987Z,1.50
2022-09-17T13:55:51.071Z,1.00
2022-09-17T13:58:18.764Z,0.85
2022-09-17T14:00:59.102Z,1.30
2022-09-17T14:03:30.852Z,1.40
2022-09-17T14:06:18.902Z,1.60
2022-09-17T14:08:47.340Z,1.10
2022-09-17T14:11:23.899Z,0.98
2022-09-17T14:14:10.466Z,1.08
2022-09-17T14:16:48.632Z,1.05
2022-09-17T14:19:29.088Z,0.98
2022-09-17T14:22:05.982Z,0.67
2022-09-17T14:24:39.839Z,1.17
2022-09-17T14:27:44.569Z,1.10
2022-09-17T14:30:21.864Z,0.95
2022-09-17T14:32:51.961Z,1.37
2022-09-17T14:35:21.919Z,1.20
2022-09-17T14:37:56.476Z,1.30
2022-09-17T14:40:25.613Z,1.10
2022-09-17T14:42:56.826Z,1.08
2022-09-17T14:45:28.176Z,1.23
2022-09-17T14:48:22.284Z,1.03
2022-09-17T14:50:50.225Z,0.90
2022-09-17T14:53:19.940Z,1.30
2022-09-17T14:55:48.638Z,0.95
2022-09-17T14:58:30.719Z,1.37
2022-09-17T15:00:58.726Z,1.97
2022-09-17T15:03:26.533Z,0.90
2022-09-17T15:05:54.437Z,0.80
2022-09-17T15:08:30.333Z,1.02
2022-09-17T15:11:00.292Z,0.88
2022-09-17T15:13:33.036Z,0.70
2022-09-17T15:16:03.785Z,0.90
2022-09-17T15:18:43.484Z,0.95
2022-09-17T15:21:39.651Z,0.70
2022-09-17T15:24:28.606Z,1.10
2022-09-17T15:26:59.303Z,0.67
2022-09-17T15:29:28.688Z,0.70
2022-09-17T15:31:56.573Z,0.98
2022-09-17T15:34:23.990Z,1.65
2022-09-17T15:37:19.159Z,1.20
2022-09-17T15:39:52.977Z,0.70
2022-09-17T15:42:31.185Z,0.68
2022-09-17T15:45:29.496Z,0.70
2022-09-17T15:47:58.669Z,0.80
2022-09-17T15:50:29.502Z,0.70
2022-09-17T15:53:09.308Z,0.80
2022-09-17T15:55:40.982Z,0.80
2022-09-17T15:58:24.808Z,0.93
2022-09-17T16:01:14.877Z,0.70
2022-09-17T16:03:48.766Z,0.80
2022-09-17T16:06:19.085Z,0.90
2022-09-17T16:08:54.710Z,0.77
2022-09-17T16:11:24.160Z,1.00
2022-09-17T16:13:53.964Z,0.90
2022-09-17T16:16:28.185Z,1.10
2022-09-17T16:18:56.641Z,0.80
2022-09-17T16:21:25.095Z,0.70
2022-09-17T16:23:55.273Z,1.10
2022-09-17T16:26:26.777Z,0.77
2022-09-17T16:28:58.971Z,0.73
2022-09-17T16:31:30.296Z,0.80
2022-09-17T16:34:00.868Z,0.93
2022-09-17T16:36:31.087Z,0.88
2022-09-17T16:38:59.484Z,1.00
2022-09-17T16:41:27.036Z,1.00
2022-09-17T16:43:54.785Z,0.90
2022-09-17T16:46:22.343Z,0.75
2022-09-17T16:48:50.487Z,0.70
2022-09-17T16:51:18.482Z,0.70
2022-09-17T16:53:46.183Z,1.10
2022-09-17T16:56:14.914Z,0.90
2022-09-17T16:58:43.082Z,0.90
2022-09-17T17:01:13.010Z,0.98
2022-09-17T17:03:40.817Z,0.85
2022-09-17T17:06:28.796Z,1.10
2022-09-17T17:09:00.953Z,0.90
2022-09-17T17:11:28.740Z,0.80
2022-09-17T17:13:56.218Z,1.00
2022-09-17T17:16:25.399Z,1.05
2022-09-17T17:18:53.416Z,3.25
2022-09-17T17:21:21.440Z,1.07
2022-09-17T17:23:49.011Z,1.37
2022-09-17T17:26:16.983Z,2.83
2022-09-17T17:28:44.452Z,1.50
2022-09-17T17:31:12.113Z,1.08
2022-09-17T17:33:39.954Z,1.00
2022-09-17T17:36:08.592Z,0.98
2022-09-17T17:38:37.202Z,1.10
2022-09-17T17:41:10.468Z,0.90
2022-09-17T17:43:38.154Z,1.10
2022-09-17T17:46:07.858Z,1.00
2022-09-17T17:48:35.808Z,0.93
2022-09-17T17:51:05.101Z,1.00
2022-09-17T17:53:33.018Z,0.90
2022-09-17T17:56:03.189Z,1.10
2022-09-17T17:58:30.670Z,1.17
2022-09-17T18:00:59.078Z,0.80
2022-09-17T18:03:26.930Z,0.90
2022-09-17T18:05:56.408Z,1.00
2022-09-17T18:08:24.679Z,0.90
2022-09-17T18:10:56.616Z,0.63
2022-09-17T18:13:24.117Z,0.80
2022-09-17T18:15:59.973Z,1.05
2022-09-17T18:18:44.187Z,1.10
2022-09-17T18:21:15.820Z,1.40
2022-09-17T18:23:43.982Z,0.80
2022-09-17T18:26:16.928Z,0.80
2022-09-17T18:28:47.966Z,0.60
2022-09-17T18:31:32.917Z,1.08
2022-09-17T18:34:02.725Z,0.73
2022-09-17T18:36:33.455Z,0.90
2022-09-17T18:39:57.045Z,0.70
2022-09-17T18:41:50.724Z,0.80
2022-09-17T18:44:21.513Z,0.70
2022-09-17T18:46:50.236Z,0.60
2022-09-17T18:49:18.565Z,0.80
2022-09-17T18:51:46.062Z,1.00
2022-09-17T18:54:13.683Z,0.80
2022-09-17T18:56:44.453Z,0.90
2022-09-17T18:59:12.039Z,0.70
2022-09-17T19:01:39.701Z,1.30
2022-09-17T19:04:08.359Z,0.85
2022-09-17T19:06:36.012Z,0.90
2022-09-17T19:09:04.624Z,0.60
2022-09-17T19:11:34.890Z,0.77
2022-09-17T19:14:02.426Z,0.80
2022-09-17T19:16:30.048Z,1.10
2022-09-17T19:18:57.859Z,1.27
2022-09-17T19:21:25.457Z,1.98
2022-09-17T19:23:53.736Z,1.20
2022-09-17T19:26:26.350Z,1.00
2022-09-17T19:28:58.754Z,1.62
2022-09-17T19:31:27.278Z,1.15
2022-09-17T19:33:56.844Z,0.88
2022-09-17T19:36:24.367Z,0.90
2022-09-17T19:38:52.252Z,0.60
2022-09-17T19:41:25.479Z,0.75
2022-09-17T19:43:54.581Z,0.80
2022-09-17T19:46:24.289Z,0.80
2022-09-17T19:48:54.180Z,0.70
2022-09-17T19:51:24.007Z,0.90
2022-09-17T19:53:52.637Z,1.00
2022-09-17T19:56:22.234Z,0.90
2022-09-17T19:58:50.533Z,0.70
2022-09-17T20:01:18.977Z,1.00
2022-09-17T20:03:47.042Z,0.70
2022-09-17T20:06:18.319Z,1.10
2022-09-17T20:08:47.421Z,1.12
2022-09-17T20:11:16.975Z,1.23
2022-09-17T20:13:44.483Z,1.17
2022-09-17T20:16:14.833Z,1.10
2022-09-17T20:18:43.971Z,1.10
2022-09-17T20:21:17.885Z,1.10
2022-09-17T20:23:45.703Z,1.10
2022-09-17T20:26:13.708Z,0.77
2022-09-17T20:28:41.696Z,0.93
2022-09-17T20:31:13.607Z,1.20
2022-09-17T20:33:41.769Z,1.10
2022-09-17T20:36:20.928Z,0.88
2022-09-17T20:41:38.627Z,0.80
2022-09-17T20:44:07.316Z,0.80
2022-09-17T20:46:35.116Z,0.80
2022-09-17T20:49:02.981Z,0.70
2022-09-17T20:51:30.634Z,1.00
2022-09-17T20:53:58.569Z,0.93
2022-09-17T20:56:28.388Z,0.70
2022-09-17T20:59:18.494Z,0.70
2022-09-17T21:01:49.489Z,0.88
2022-09-17T21:04:19.546Z,0.70
2022-09-17T21:06:50.989Z,0.60
2022-09-17T21:09:18.535Z,0.70
2022-09-17T21:11:47.465Z,0.90
2022-09-17T21:14:16.095Z,1.05
2022-09-17T21:16:44.366Z,0.60
2022-09-17T21:19:12.994Z,0.90
2022-09-17T21:21:40.729Z,0.80
2022-09-17T21:24:10.232Z,0.85
2022-09-17T21:26:37.795Z,0.98
2022-09-17T21:29:05.608Z,0.77
2022-09-17T21:31:36.872Z,0.87
2022-09-17T21:34:07.640Z,0.80
2022-09-17T21:36:36.857Z,0.93
2022-09-17T21:39:11.838Z,0.77
2022-09-17T21:41:42.554Z,1.30
2022-09-17T21:44:11.746Z,0.80
2022-09-17T21:46:40.309Z,0.88
2022-09-17T21:49:08.354Z,0.82
2022-09-17T21:51:38.667Z,0.70
2022-09-17T21:54:08.777Z,1.10
2022-09-17T21:56:36.629Z,1.00
2022-09-17T21:59:06.367Z,0.60
2022-09-17T22:01:40.321Z,0.82
2022-09-17T22:04:13.469Z,0.77
2022-09-17T22:06:42.445Z,0.80
2022-09-17T22:09:17.593Z,0.70
2022-09-17T22:11:45.270Z,0.60
2022-09-17T22:14:15.677Z,0.57
2022-09-17T22:16:45.387Z,0.40
2022-09-17T22:19:17.003Z,0.90
2022-09-17T22:21:47.389Z,0.53
2022-09-17T22:24:16.283Z,0.80
2022-09-17T22:26:46.776Z,1.15
2022-09-17T22:29:16.760Z,0.70
2022-09-17T22:31:45.647Z,0.75
2022-09-17T22:34:19.057Z,0.70
2022-09-17T22:36:47.016Z,0.88
2022-09-17T22:39:14.800Z,0.70
2022-09-17T22:41:45.309Z,0.90
2022-09-17T22:44:15.712Z,0.70
2022-09-17T22:46:43.658Z,0.70
2022-09-17T22:49:11.931Z,0.90
2022-09-17T22:51:40.158Z,0.85
2022-09-17T22:54:10.601Z,0.93
2022-09-17T22:56:38.103Z,0.90
2022-09-17T22:59:05.888Z,0.80
2022-09-17T23:01:36.179Z,1.10
2022-09-17T23:04:04.341Z,0.90
2022-09-17T23:06:35.677Z,1.00
2022-09-17T23:09:04.004Z,1.37
2022-09-17T23:11:33.949Z,1.00
2022-09-17T23:14:03.696Z,0.90
2022-09-17T23:16:40.486Z,0.70
2022-09-17T23:19:09.551Z,0.90
2022-09-17T23:21:37.629Z,1.10
2022-09-17T23:24:05.733Z,0.93
2022-09-17T23:26:33.612Z,0.88
2022-09-17T23:29:04.949Z,1.08
2022-09-17T23:31:35.256Z,0.73
2022-09-17T23:34:04.442Z,1.20
2022-09-17T23:36:35.004Z,1.00
2022-09-17T23:39:04.166Z,1.20
2022-09-17T23:41:34.643Z,1.08
2022-09-17T23:44:04.703Z,0.90
2022-09-17T23:46:33.872Z,0.98
2022-09-17T23:49:02.196Z,0.90
2022-09-17T23:51:33.560Z,1.27
2022-09-17T23:54:01.484Z,1.40
2022-09-17T23:56:30.241Z,1.67
2022-09-17T23:59:00.018Z,1.40
